createdAt,value
2023-03-25T00:01:14.106Z,80.65
2023-03-25T00:03:46.920Z,81.15
2023-03-25T00:06:13.996Z,81.29
2023-03-25T00:08:40.654Z,81.35
2023-03-25T00:11:08.511Z,81.04
2023-03-25T00:13:35.308Z,81.50
2023-03-25T00:16:02.617Z,81.73
2023-03-25T00:18:34.418Z,81.16
2023-03-25T00:21:02.571Z,81.57
2023-03-25T00:23:30.054Z,81.69
2023-03-25T00:26:00.537Z,81.98
2023-03-25T00:28:28.940Z,82.08
2023-03-25T00:30:58.633Z,82.41
2023-03-25T00:33:25.262Z,81.80
2023-03-25T00:35:54.693Z,81.80
2023-03-25T00:38:22.169Z,81.76
2023-03-25T00:40:48.764Z,81.27
2023-03-25T00:43:15.737Z,81.84
2023-03-25T00:45:42.414Z,81.35
2023-03-25T00:48:09.112Z,81.35
2023-03-25T00:50:36.150Z,81.18
2023-03-25T00:53:03.621Z,80.69
2023-03-25T00:55:30.280Z,80.81
2023-03-25T00:57:57.001Z,80.63
2023-03-25T01:00:23.617Z,80.94
2023-03-25T01:02:54.174Z,80.53
2023-03-25T01:05:22.462Z,80.55
2023-03-25T01:07:49.672Z,80.41
2023-03-25T01:10:16.308Z,80.22
2023-03-25T01:12:42.935Z,80.30
2023-03-25T01:15:10.913Z,79.67
2023-03-25T01:17:37.550Z,79.97
2023-03-25T01:20:06.353Z,80.41
2023-03-25T01:22:32.948Z,79.72
2023-03-25T01:24:59.514Z,79.99
2023-03-25T01:27:26.446Z,79.89
2023-03-25T01:29:54.713Z,79.96
2023-03-25T01:32:21.385Z,80.30
2023-03-25T01:34:48.282Z,80.30
2023-03-25T01:37:15.387Z,79.80
2023-03-25T01:39:42.102Z,80.44
2023-03-25T01:42:11.551Z,80.27
2023-03-25T01:44:38.155Z,80.01
2023-03-25T01:47:05.360Z,79.84
2023-03-25T01:49:34.327Z,79.85
2023-03-25T01:52:03.436Z,80.06
2023-03-25T01:54:30.963Z,80.07
2023-03-25T01:56:58.091Z,80.16
2023-03-25T01:59:27.276Z,80.55
2023-03-25T02:01:55.262Z,80.55
2023-03-25T02:04:27.513Z,81.50
2023-03-25T02:06:55.775Z,82.96
2023-03-25T02:09:24.726Z,85.62
2023-03-25T02:11:54.892Z,90.20
2023-03-25T02:14:23.948Z,99.08
2023-03-25T02:16:59.194Z,100.00
2023-03-25T02:19:44.650Z,100.00
2023-03-25T02:22:25.884Z,100.00
2023-03-25T02:25:02.210Z,100.00
2023-03-25T02:27:47.834Z,100.00
2023-03-25T02:30:29.548Z,100.00
2023-03-25T02:33:11.540Z,100.00
2023-03-25T02:35:38.290Z,100.00
2023-03-25T02:38:24.916Z,100.00
2023-03-25T02:40:58.734Z,100.00
2023-03-25T02:43:45.731Z,100.00
2023-03-25T02:46:14.936Z,100.00
2023-03-25T02:48:47.647Z,100.00
2023-03-25T02:51:17.745Z,100.00
2023-03-25T02:53:46.008Z,100.00
2023-03-25T02:56:14.997Z,100.00
2023-03-25T02:58:42.107Z,100.00
2023-03-25T03:01:10.353Z,100.00
2023-03-25T03:03:37.265Z,100.00
2023-03-25T03:06:05.477Z,100.00
2023-03-25T03:08:46.293Z,100.00
2023-03-25T03:11:23.176Z,100.00
2023-03-25T03:13:59.013Z,100.00
2023-03-25T03:16:25.735Z,100.00
2023-03-25T03:19:03.601Z,100.00
2023-03-25T03:21:39.332Z,100.00
2023-03-25T03:24:11.864Z,100.00
2023-03-25T03:26:42.081Z,100.00
2023-03-25T03:29:18.062Z,100.00
2023-03-25T03:32:06.019Z,100.00
2023-03-25T03:34:47.531Z,100.00
2023-03-25T03:37:16.324Z,100.00
2023-03-25T03:39:46.378Z,100.00
2023-03-25T03:42:16.062Z,100.00
2023-03-25T03:44:46.456Z,100.00
2023-03-25T03:47:16.635Z,100.00
2023-03-25T03:49:45.422Z,100.00
2023-03-25T03:52:14.982Z,100.00
2023-03-25T03:54:49.714Z,100.00
2023-03-25T03:57:31.979Z,100.00
2023-03-25T04:00:04.247Z,100.00
2023-03-25T04:02:35.444Z,100.00
2023-03-25T04:05:02.568Z,100.00
2023-03-25T04:07:40.660Z,100.00
2023-03-25T04:10:15.178Z,100.00
2023-03-25T04:12:44.221Z,100.00
2023-03-25T04:15:11.415Z,100.00
2023-03-25T04:17:38.200Z,100.00
2023-03-25T04:20:09.118Z,100.00
2023-03-25T04:22:38.636Z,100.00
2023-03-25T04:25:06.508Z,100.00
2023-03-25T04:27:33.380Z,100.00
2023-03-25T04:30:01.948Z,100.00
2023-03-25T04:32:28.601Z,100.00
2023-03-25T04:34:58.452Z,100.00
2023-03-25T04:37:25.777Z,100.00
2023-03-25T04:39:54.028Z,100.00
2023-03-25T04:42:20.729Z,100.00
2023-03-25T04:44:47.317Z,100.00
2023-03-25T04:47:16.415Z,100.00
2023-03-25T04:49:45.411Z,100.00
2023-03-25T04:52:12.053Z,100.00
2023-03-25T04:54:38.719Z,100.00
2023-03-25T04:57:05.391Z,100.00
2023-03-25T04:59:32.078Z,100.00
2023-03-25T05:01:58.866Z,100.00
2023-03-25T05:04:25.619Z,100.00
2023-03-25T05:06:52.268Z,100.00
2023-03-25T05:09:20.872Z,100.00
2023-03-25T05:11:48.161Z,100.00
2023-03-25T05:14:16.548Z,100.00
2023-03-25T05:16:43.574Z,100.00
2023-03-25T05:19:10.185Z,100.00
2023-03-25T05:21:37.811Z,100.00
2023-03-25T05:24:05.146Z,100.00
2023-03-25T05:26:34.787Z,100.00
2023-03-25T05:29:02.383Z,100.00
2023-03-25T05:31:29.440Z,100.00
2023-03-25T05:33:56.485Z,100.00
2023-03-25T05:36:25.282Z,100.00
2023-03-25T05:38:55.255Z,100.00
2023-03-25T05:41:32.485Z,100.00
2023-03-25T05:44:00.631Z,100.00
2023-03-25T05:46:29.458Z,100.00
2023-03-25T05:48:57.663Z,100.00
2023-03-25T05:51:25.356Z,100.00
2023-03-25T05:53:52.371Z,100.00
2023-03-25T05:56:19.837Z,100.00
2023-03-25T05:58:47.180Z,100.00
2023-03-25T06:01:25.505Z,100.00
2023-03-25T06:04:01.262Z,100.00
2023-03-25T06:06:28.054Z,100.00
2023-03-25T06:08:58.845Z,100.00
2023-03-25T06:11:25.781Z,100.00
2023-03-25T06:13:52.709Z,100.00
2023-03-25T06:16:21.132Z,100.00
2023-03-25T06:18:51.250Z,100.00
2023-03-25T06:21:19.420Z,100.00
2023-03-25T06:23:48.248Z,100.00
2023-03-25T06:26:18.705Z,100.00
2023-03-25T06:28:46.206Z,100.00
2023-03-25T06:31:17.103Z,100.00
2023-03-25T06:33:44.492Z,100.00
2023-03-25T06:36:11.832Z,100.00
2023-03-25T06:38:39.472Z,100.00
2023-03-25T06:41:07.425Z,100.00
2023-03-25T06:43:34.465Z,100.00
2023-03-25T06:46:01.190Z,100.00
2023-03-25T06:48:27.879Z,100.00
2023-03-25T06:50:54.578Z,100.00
2023-03-25T06:53:22.057Z,100.00
2023-03-25T06:55:49.086Z,100.00
2023-03-25T06:58:15.949Z,100.00
2023-03-25T07:00:43.454Z,100.00
2023-03-25T07:03:11.101Z,100.00
2023-03-25T07:05:37.991Z,100.00
2023-03-25T07:08:04.804Z,100.00
2023-03-25T07:10:32.557Z,100.00
2023-03-25T07:12:59.185Z,100.00
2023-03-25T07:15:26.884Z,100.00
2023-03-25T07:17:53.585Z,100.00
2023-03-25T07:20:20.428Z,100.00
2023-03-25T07:22:47.039Z,100.00
2023-03-25T07:25:13.712Z,100.00
2023-03-25T07:27:40.917Z,100.00
2023-03-25T07:30:09.024Z,100.00
2023-03-25T07:46:04.101Z,100.00
2023-03-25T07:48:31.177Z,100.00
2023-03-25T07:50:57.792Z,100.00
2023-03-25T07:53:24.719Z,100.00
2023-03-25T07:55:51.883Z,100.00
2023-03-25T07:58:19.406Z,100.00
2023-03-25T08:00:47.008Z,100.00
2023-03-25T08:03:16.651Z,100.00
2023-03-25T08:05:45.640Z,100.00
2023-03-25T08:08:12.293Z,100.00
2023-03-25T08:10:39.052Z,100.00
2023-03-25T08:13:05.736Z,100.00
2023-03-25T08:15:32.454Z,100.00
2023-03-25T08:17:59.113Z,100.00
2023-03-25T08:20:25.857Z,100.00
2023-03-25T08:22:52.570Z,100.00
2023-03-25T08:25:19.192Z,100.00
2023-03-25T08:27:45.838Z,100.00
2023-03-25T08:30:12.718Z,100.00
2023-03-25T08:32:40.553Z,100.00
2023-03-25T08:35:08.122Z,100.00
2023-03-25T08:37:35.535Z,100.00
2023-03-25T08:40:02.587Z,100.00
2023-03-25T08:42:29.280Z,100.00
2023-03-25T08:44:56.046Z,100.00
2023-03-25T08:47:22.874Z,100.00
2023-03-25T08:49:49.510Z,100.00
2023-03-25T08:52:16.523Z,100.00
2023-03-25T08:54:43.135Z,100.00
2023-03-25T08:57:09.783Z,100.00
2023-03-25T08:59:36.567Z,100.00
2023-03-25T09:02:03.798Z,100.00
2023-03-25T09:04:31.079Z,100.00
2023-03-25T09:07:11.159Z,100.00
2023-03-25T09:09:39.013Z,100.00
2023-03-25T09:12:06.217Z,100.00
2023-03-25T09:14:32.862Z,100.00
2023-03-25T09:16:59.697Z,100.00
2023-03-25T09:19:26.679Z,100.00
2023-03-25T09:21:53.406Z,100.00
2023-03-25T09:24:22.855Z,100.00
2023-03-25T09:26:49.763Z,100.00
2023-03-25T09:29:16.584Z,100.00
2023-03-25T09:31:43.296Z,100.00
2023-03-25T09:34:10.125Z,100.00
2023-03-25T09:36:37.322Z,100.00
2023-03-25T09:39:04.127Z,100.00
2023-03-25T09:41:39.503Z,100.00
2023-03-25T09:44:30.051Z,100.00
2023-03-25T09:46:59.811Z,100.00
2023-03-25T09:49:32.936Z,100.00
2023-03-25T09:52:00.846Z,100.00
2023-03-25T09:54:34.161Z,100.00
2023-03-25T09:57:04.504Z,100.00
2023-03-25T09:59:42.609Z,100.00
2023-03-25T10:02:27.946Z,100.00
2023-03-25T10:04:57.682Z,100.00
2023-03-25T10:07:42.586Z,100.00
2023-03-25T10:10:12.625Z,100.00
2023-03-25T10:12:55.964Z,100.00
2023-03-25T10:15:25.477Z,100.00
2023-03-25T10:17:58.441Z,100.00
2023-03-25T10:20:31.515Z,100.00
2023-03-25T10:23:16.763Z,100.00
2023-03-25T10:25:46.062Z,100.00
2023-03-25T10:28:17.766Z,100.00
2023-03-25T10:30:46.900Z,100.00
2023-03-25T10:33:19.234Z,100.00
2023-03-25T10:35:47.872Z,100.00
2023-03-25T10:38:14.776Z,100.00
2023-03-25T10:40:50.551Z,100.00
2023-03-25T10:43:28.638Z,100.00
2023-03-25T10:46:00.530Z,100.00
2023-03-25T10:48:31.392Z,100.00
2023-03-25T10:51:06.594Z,100.00
2023-03-25T10:53:33.590Z,100.00
2023-03-25T10:56:14.718Z,100.00
2023-03-25T10:58:43.036Z,100.00
2023-03-25T11:01:14.433Z,100.00
2023-03-25T11:03:42.161Z,100.00
2023-03-25T11:06:17.919Z,100.00
2023-03-25T11:09:04.745Z,100.00
2023-03-25T11:11:32.621Z,100.00
2023-03-25T11:13:59.641Z,100.00
2023-03-25T11:16:26.797Z,100.00
2023-03-25T11:18:54.074Z,100.00
2023-03-25T11:21:21.651Z,100.00
2023-03-25T11:23:49.525Z,100.00
2023-03-25T11:26:20.968Z,100.00
2023-03-25T11:28:49.624Z,100.00
2023-03-25T11:31:16.389Z,100.00
2023-03-25T11:33:44.940Z,100.00
2023-03-25T11:36:22.893Z,100.00
2023-03-25T11:38:56.691Z,100.00
2023-03-25T11:41:23.815Z,100.00
2023-03-25T11:43:50.575Z,100.00
2023-03-25T11:46:18.755Z,100.00
2023-03-25T11:48:50.213Z,100.00
2023-03-25T11:51:21.894Z,100.00
2023-03-25T11:53:50.555Z,100.00
2023-03-25T11:56:20.839Z,100.00
2023-03-25T11:58:48.137Z,100.00
2023-03-25T12:01:17.928Z,100.00
2023-03-25T12:03:44.892Z,100.00
2023-03-25T12:06:11.892Z,100.00
2023-03-25T12:08:43.997Z,100.00
2023-03-25T12:11:20.339Z,100.00
2023-03-25T12:13:47.127Z,100.00
2023-03-25T12:16:32.716Z,100.00
2023-03-25T12:19:05.750Z,100.00
2023-03-25T12:21:33.008Z,100.00
2023-03-25T12:24:13.705Z,100.00
2023-03-25T12:26:52.388Z,100.00
2023-03-25T12:29:21.821Z,100.00
2023-03-25T12:32:00.184Z,100.00
2023-03-25T12:34:46.348Z,100.00
2023-03-25T12:37:30.469Z,100.00
2023-03-25T12:39:57.501Z,100.00
2023-03-25T12:42:27.275Z,100.00
2023-03-25T12:44:53.874Z,100.00
2023-03-25T12:47:42.229Z,100.00
2023-03-25T12:50:22.249Z,100.00
2023-03-25T12:52:49.767Z,100.00
2023-03-25T12:55:16.724Z,100.00
2023-03-25T12:57:43.383Z,100.00
2023-03-25T13:00:23.344Z,100.00
2023-03-25T13:03:02.845Z,98.57
2023-03-25T13:05:29.602Z,100.00
2023-03-25T13:07:59.405Z,100.00
2023-03-25T13:10:30.529Z,97.27
2023-03-25T13:13:01.721Z,100.00
2023-03-25T13:15:31.966Z,100.00
2023-03-25T13:18:04.273Z,100.00
2023-03-25T13:20:34.725Z,100.00
2023-03-25T13:23:04.046Z,100.00
2023-03-25T13:25:33.421Z,100.00
2023-03-25T13:28:03.360Z,100.00
2023-03-25T13:30:38.807Z,100.00
2023-03-25T13:33:08.492Z,100.00
2023-03-25T13:35:35.488Z,100.00
2023-03-25T13:38:04.871Z,100.00
2023-03-25T13:40:39.393Z,100.00
2023-03-25T13:43:07.759Z,100.00
2023-03-25T13:45:55.315Z,100.00
2023-03-25T13:48:31.799Z,100.00
2023-03-25T13:51:01.961Z,100.00
2023-03-25T13:54:07.170Z,100.00
2023-03-25T13:56:34.232Z,100.00
2023-03-25T13:59:19.667Z,100.00
2023-03-25T14:01:46.426Z,100.00
2023-03-25T14:04:13.189Z,100.00
2023-03-25T14:06:50.119Z,100.00
2023-03-25T14:09:34.158Z,100.00
2023-03-25T14:12:19.592Z,89.38
2023-03-25T14:14:52.157Z,87.51
2023-03-25T14:17:20.025Z,96.04
2023-03-25T14:19:55.333Z,95.31
2023-03-25T14:22:23.569Z,97.38
2023-03-25T14:24:51.217Z,100.00
2023-03-25T14:27:20.840Z,100.00
2023-03-25T14:29:54.963Z,100.00
2023-03-25T14:32:21.571Z,100.00
2023-03-25T14:34:51.596Z,100.00
2023-03-25T14:37:18.396Z,100.00
2023-03-25T14:39:45.879Z,100.00
2023-03-25T14:42:24.100Z,100.00
2023-03-25T14:44:54.657Z,100.00
2023-03-25T14:47:32.257Z,100.00
2023-03-25T14:50:05.452Z,100.00
2023-03-25T14:52:45.924Z,100.00
2023-03-25T14:55:18.663Z,100.00
2023-03-25T14:57:46.702Z,99.86
2023-03-25T15:00:23.946Z,100.00
2023-03-25T15:02:52.913Z,97.62
2023-03-25T15:05:27.831Z,100.00
2023-03-25T15:08:07.324Z,99.85
2023-03-25T15:10:37.160Z,100.00
2023-03-25T15:13:09.502Z,100.00
2023-03-25T15:15:45.104Z,100.00
2023-03-25T15:18:12.911Z,100.00
2023-03-25T15:20:39.917Z,100.00
2023-03-25T15:23:18.628Z,100.00
2023-03-25T15:25:56.080Z,100.00
2023-03-25T15:28:28.791Z,100.00
2023-03-25T15:31:02.949Z,100.00
2023-03-25T15:33:29.870Z,100.00
2023-03-25T15:36:19.993Z,100.00
2023-03-25T15:39:06.912Z,100.00
2023-03-25T15:41:46.906Z,100.00
2023-03-25T15:44:20.358Z,100.00
2023-03-25T15:46:50.080Z,100.00
2023-03-25T15:49:19.488Z,100.00
2023-03-25T15:51:49.294Z,100.00
2023-03-25T15:54:15.944Z,100.00
2023-03-25T15:56:44.425Z,100.00
2023-03-25T15:59:30.384Z,100.00
2023-03-25T16:02:00.101Z,100.00
2023-03-25T16:04:38.074Z,100.00
2023-03-25T16:07:07.316Z,100.00
2023-03-25T16:09:38.778Z,100.00
2023-03-25T16:12:08.965Z,100.00
2023-03-25T16:14:36.606Z,100.00
2023-03-25T16:17:05.939Z,100.00
2023-03-25T16:19:39.431Z,100.00
2023-03-25T16:22:29.346Z,100.00
2023-03-25T16:24:57.705Z,100.00
2023-03-25T16:27:30.840Z,100.00
2023-03-25T16:29:58.052Z,100.00
2023-03-25T16:32:26.590Z,100.00
2023-03-25T16:34:55.891Z,100.00
2023-03-25T16:37:23.030Z,100.00
2023-03-25T16:39:53.580Z,100.00
2023-03-25T16:42:20.354Z,100.00
2023-03-25T16:44:47.106Z,100.00
2023-03-25T16:47:16.246Z,100.00
2023-03-25T16:49:46.434Z,100.00
2023-03-25T16:52:16.115Z,100.00
2023-03-25T16:54:52.217Z,100.00
2023-03-25T16:57:27.445Z,100.00
2023-03-25T16:59:54.644Z,100.00
2023-03-25T17:02:28.843Z,100.00
2023-03-25T17:05:11.925Z,100.00
2023-03-25T17:07:40.874Z,100.00
2023-03-25T17:10:15.311Z,100.00
2023-03-25T17:12:43.108Z,100.00
2023-03-25T17:15:14.747Z,100.00
2023-03-25T17:17:49.309Z,100.00
2023-03-25T17:20:22.435Z,100.00
2023-03-25T17:23:00.470Z,100.00
2023-03-25T17:25:29.004Z,100.00
2023-03-25T17:27:56.615Z,100.00
2023-03-25T17:30:32.710Z,100.00
2023-03-25T17:33:18.520Z,100.00
2023-03-25T17:35:52.649Z,100.00
2023-03-25T17:38:45.769Z,100.00
2023-03-25T17:41:16.219Z,100.00
2023-03-25T17:43:48.272Z,100.00
2023-03-25T17:46:18.638Z,100.00
2023-03-25T17:48:45.781Z,100.00
2023-03-25T17:51:14.631Z,100.00
2023-03-25T17:53:41.613Z,100.00
2023-03-25T17:56:11.766Z,100.00
2023-03-25T17:58:38.895Z,100.00
2023-03-25T18:01:06.251Z,100.00
2023-03-25T18:03:35.226Z,100.00
2023-03-25T18:06:02.084Z,100.00
2023-03-25T18:08:29.517Z,100.00
2023-03-25T18:10:56.746Z,100.00
2023-03-25T18:13:27.680Z,100.00
2023-03-25T18:15:55.634Z,100.00
2023-03-25T18:18:24.557Z,100.00
2023-03-25T18:20:52.563Z,100.00
2023-03-25T18:23:21.494Z,100.00
2023-03-25T18:25:50.431Z,100.00
2023-03-25T18:28:17.515Z,100.00
2023-03-25T18:30:52.652Z,100.00
2023-03-25T18:33:20.298Z,100.00
2023-03-25T18:35:47.429Z,100.00
2023-03-25T18:38:23.300Z,100.00
2023-03-25T18:40:51.784Z,100.00
2023-03-25T18:43:19.526Z,100.00
2023-03-25T18:45:47.227Z,100.00
2023-03-25T18:48:15.797Z,100.00
2023-03-25T18:50:48.517Z,100.00
2023-03-25T18:53:15.677Z,100.00
2023-03-25T18:55:43.818Z,100.00
2023-03-25T18:58:22.747Z,100.00
2023-03-25T19:00:52.025Z,100.00
2023-03-25T19:03:20.616Z,100.00
2023-03-25T19:05:48.092Z,100.00
2023-03-25T19:08:20.183Z,100.00
2023-03-25T19:10:48.257Z,100.00
2023-03-25T19:13:16.596Z,100.00
2023-03-25T19:15:44.185Z,100.00
2023-03-25T19:18:16.812Z,100.00
2023-03-25T19:20:44.749Z,100.00
2023-03-25T19:23:12.988Z,100.00
2023-03-25T19:25:41.587Z,100.00
2023-03-25T19:28:09.138Z,100.00
2023-03-25T19:30:36.949Z,100.00
2023-03-25T19:33:04.615Z,100.00
2023-03-25T19:35:33.518Z,100.00
2023-03-25T19:38:04.153Z,100.00
2023-03-25T19:40:33.445Z,100.00
2023-03-25T19:43:02.300Z,100.00
2023-03-25T19:45:31.359Z,100.00
2023-03-25T19:47:58.905Z,100.00
2023-03-25T19:50:28.446Z,100.00
2023-03-25T19:52:56.515Z,100.00
2023-03-25T19:55:25.077Z,100.00
2023-03-25T19:57:53.101Z,100.00
2023-03-25T20:00:27.023Z,100.00
2023-03-25T20:02:59.458Z,100.00
2023-03-25T20:05:29.758Z,100.00
2023-03-25T20:07:58.360Z,100.00
2023-03-25T20:10:28.540Z,100.00
2023-03-25T20:12:56.549Z,100.00
2023-03-25T20:15:24.446Z,100.00
2023-03-25T20:17:52.537Z,100.00
2023-03-25T20:20:20.645Z,100.00
2023-03-25T20:22:50.858Z,100.00
2023-03-25T20:25:18.640Z,100.00
2023-03-25T20:27:47.303Z,100.00
2023-03-25T20:30:16.949Z,100.00
2023-03-25T20:32:46.616Z,100.00
2023-03-25T20:35:16.628Z,100.00
2023-03-25T20:37:45.793Z,100.00
2023-03-25T20:40:15.078Z,100.00
2023-03-25T20:42:43.510Z,100.00
2023-03-25T20:45:11.886Z,100.00
2023-03-25T20:47:39.051Z,100.00
2023-03-25T20:50:08.007Z,100.00
2023-03-25T20:52:36.382Z,100.00
2023-03-25T20:55:03.726Z,100.00
2023-03-25T20:57:31.147Z,100.00
2023-03-25T20:59:58.704Z,100.00
2023-03-25T21:02:25.783Z,100.00
2023-03-25T21:04:56.273Z,100.00
2023-03-25T21:07:25.449Z,100.00
2023-03-25T21:09:53.133Z,100.00
2023-03-25T21:12:23.148Z,100.00
2023-03-25T21:14:53.470Z,100.00
2023-03-25T21:17:20.912Z,100.00
2023-03-25T21:19:48.258Z,100.00
2023-03-25T21:22:17.570Z,100.00
2023-03-25T21:24:44.351Z,100.00
2023-03-25T21:27:14.590Z,100.00
2023-03-25T21:29:41.408Z,100.00
2023-03-25T21:32:08.450Z,100.00
2023-03-25T21:34:35.270Z,100.00
2023-03-25T21:37:03.600Z,100.00
2023-03-25T21:39:30.727Z,100.00
2023-03-25T21:41:57.349Z,100.00
2023-03-25T21:44:24.252Z,100.00
2023-03-25T21:46:53.678Z,100.00
2023-03-25T21:49:22.465Z,100.00
2023-03-25T21:51:57.037Z,100.00
2023-03-25T21:54:24.126Z,100.00
2023-03-25T21:56:55.060Z,100.00
2023-03-25T21:59:22.667Z,100.00
2023-03-25T22:01:49.501Z,100.00
2023-03-25T22:04:18.047Z,100.00
2023-03-25T22:06:44.739Z,100.00
2023-03-25T22:09:11.411Z,100.00
2023-03-25T22:11:38.032Z,100.00
2023-03-25T22:14:05.847Z,100.00
2023-03-25T22:16:32.966Z,100.00
2023-03-25T22:18:59.566Z,100.00
2023-03-25T22:21:29.749Z,100.00
2023-03-25T22:23:57.952Z,100.00
2023-03-25T22:26:25.630Z,100.00
2023-03-25T22:29:00.763Z,100.00
2023-03-25T22:31:31.528Z,100.00
2023-03-25T22:34:03.370Z,100.00
2023-03-25T22:36:31.305Z,100.00
2023-03-25T22:38:58.031Z,100.00
2023-03-25T22:41:24.751Z,100.00
2023-03-25T22:43:51.403Z,100.00
2023-03-25T22:46:18.423Z,100.00
2023-03-25T22:48:45.153Z,100.00
2023-03-25T22:51:13.022Z,100.00
2023-03-25T22:53:39.824Z,100.00
2023-03-25T22:56:06.753Z,100.00
2023-03-25T22:58:33.445Z,100.00
2023-03-25T23:01:01.424Z,100.00
2023-03-25T23:03:28.606Z,100.00
2023-03-25T23:06:02.136Z,100.00
2023-03-25T23:08:30.222Z,100.00
2023-03-25T23:10:58.068Z,100.00
2023-03-25T23:13:25.257Z,100.00
2023-03-25T23:15:57.377Z,100.00
2023-03-25T23:18:24.234Z,100.00
2023-03-25T23:20:50.916Z,100.00
2023-03-25T23:23:17.839Z,100.00
2023-03-25T23:25:44.466Z,100.00
2023-03-25T23:28:12.546Z,100.00
2023-03-25T23:30:42.876Z,100.00
2023-03-25T23:33:09.519Z,100.00
2023-03-25T23:35:36.313Z,100.00
2023-03-25T23:38:03.255Z,100.00
2023-03-25T23:40:30.260Z,100.00
2023-03-25T23:42:56.879Z,100.00
2023-03-25T23:45:30.023Z,100.00
2023-03-25T23:47:56.831Z,100.00
2023-03-25T23:50:23.460Z,100.00
2023-03-25T23:52:50.064Z,100.00
2023-03-25T23:55:17.985Z,100.00
2023-03-25T23:57:44.602Z,100.00
